sensor_id;sensor_type;location;lat;lon;timestamp;temperature;humidity
1766;DHT22;880;52.452;8.656;2023-09-19T00:01:41;16.70;99.90
1766;DHT22;880;52.452;8.656;2023-09-19T00:04:08;16.70;99.90
1766;DHT22;880;52.452;8.656;2023-09-19T00:06:37;16.70;99.90
1766;DHT22;880;52.452;8.656;2023-09-19T00:09:05;16.70;99.90
1766;DHT22;880;52.452;8.656;2023-09-19T00:11:37;16.70;99.90
1766;DHT22;880;52.452;8.656;2023-09-19T00:14:05;16.60;99.90
1766;DHT22;880;52.452;8.656;2023-09-19T00:16:34;16.60;99.90
1766;DHT22;880;52.452;8.656;2023-09-19T00:19:02;16.60;99.90
1766;DHT22;880;52.452;8.656;2023-09-19T00:21:31;16.60;99.90
1766;DHT22;880;52.452;8.656;2023-09-19T00:23:59;16.60;99.90
1766;DHT22;880;52.452;8.656;2023-09-19T00:26:26;16.60;99.90
1766;DHT22;880;52.452;8.656;2023-09-19T00:28:57;16.70;99.90
1766;DHT22;880;52.452;8.656;2023-09-19T00:31:31;16.70;99.90
1766;DHT22;880;52.452;8.656;2023-09-19T00:33:58;16.70;99.90
1766;DHT22;880;52.452;8.656;2023-09-19T00:36:26;16.70;99.90
1766;DHT22;880;52.452;8.656;2023-09-19T00:38:53;16.70;99.90
1766;DHT22;880;52.452;8.656;2023-09-19T00:41:20;16.60;99.90
1766;DHT22;880;52.452;8.656;2023-09-19T00:43:48;16.70;99.90
1766;DHT22;880;52.452;8.656;2023-09-19T00:46:17;16.70;99.90
1766;DHT22;880;52.452;8.656;2023-09-19T00:48:45;16.60;99.90
1766;DHT22;880;52.452;8.656;2023-09-19T00:51:13;16.70;99.90
1766;DHT22;880;52.452;8.656;2023-09-19T00:53:41;16.60;99.90
1766;DHT22;880;52.452;8.656;2023-09-19T00:56:13;16.60;99.90
1766;DHT22;880;52.452;8.656;2023-09-19T00:58:46;16.60;99.90
1766;DHT22;880;52.452;8.656;2023-09-19T01:01:14;16.60;99.90
1766;DHT22;880;52.452;8.656;2023-09-19T01:03:42;16.50;99.90
1766;DHT22;880;52.452;8.656;2023-09-19T01:06:12;16.50;99.90
1766;DHT22;880;52.452;8.656;2023-09-19T01:08:39;16.50;99.90
1766;DHT22;880;52.452;8.656;2023-09-19T01:11:37;16.50;99.90
1766;DHT22;880;52.452;8.656;2023-09-19T01:14:25;16.40;99.90
1766;DHT22;880;52.452;8.656;2023-09-19T01:17:05;16.40;99.90
1766;DHT22;880;52.452;8.656;2023-09-19T01:31:40;16.50;99.90
1766;DHT22;880;52.452;8.656;2023-09-19T01:34:09;16.50;99.90
1766;DHT22;880;52.452;8.656;2023-09-19T01:36:37;16.50;99.90
1766;DHT22;880;52.452;8.656;2023-09-19T01:39:08;16.50;99.90
1766;DHT22;880;52.452;8.656;2023-09-19T01:47:33;16.50;99.90
1766;DHT22;880;52.452;8.656;2023-09-19T01:53:22;16.40;99.90
1766;DHT22;880;52.452;8.656;2023-09-19T01:55:52;16.40;99.90
1766;DHT22;880;52.452;8.656;2023-09-19T02:00:53;16.40;99.90
1766;DHT22;880;52.452;8.656;2023-09-19T02:03:21;16.40;99.90
1766;DHT22;880;52.452;8.656;2023-09-19T02:05:50;16.40;99.90
1766;DHT22;880;52.452;8.656;2023-09-19T02:08:19;16.30;99.90
1766;DHT22;880;52.452;8.656;2023-09-19T02:10:47;16.30;99.90
1766;DHT22;880;52.452;8.656;2023-09-19T02:13:17;16.30;99.90
1766;DHT22;880;52.452;8.656;2023-09-19T02:15:48;16.20;99.90
1766;DHT22;880;52.452;8.656;2023-09-19T02:18:15;16.20;99.90
1766;DHT22;880;52.452;8.656;2023-09-19T02:20:43;16.20;99.90
1766;DHT22;880;52.452;8.656;2023-09-19T02:23:11;16.10;99.90
1766;DHT22;880;52.452;8.656;2023-09-19T02:25:39;16.10;99.90
1766;DHT22;880;52.452;8.656;2023-09-19T02:28:07;16.10;99.90
1766;DHT22;880;52.452;8.656;2023-09-19T02:30:36;16.10;99.90
1766;DHT22;880;52.452;8.656;2023-09-19T02:33:03;16.00;99.90
1766;DHT22;880;52.452;8.656;2023-09-19T02:35:31;16.00;99.90
1766;DHT22;880;52.452;8.656;2023-09-19T02:38:03;16.10;99.90
1766;DHT22;880;52.452;8.656;2023-09-19T02:40:33;16.10;99.90
1766;DHT22;880;52.452;8.656;2023-09-19T02:43:03;16.00;99.90
1766;DHT22;880;52.452;8.656;2023-09-19T02:45:31;16.00;99.90
1766;DHT22;880;52.452;8.656;2023-09-19T02:48:00;16.00;99.90
1766;DHT22;880;52.452;8.656;2023-09-19T02:50:29;16.00;99.90
1766;DHT22;880;52.452;8.656;2023-09-19T02:52:56;16.00;99.90
1766;DHT22;880;52.452;8.656;2023-09-19T02:55:23;16.00;99.90
1766;DHT22;880;52.452;8.656;2023-09-19T02:57:52;16.00;99.90
1766;DHT22;880;52.452;8.656;2023-09-19T03:00:21;16.00;99.90
1766;DHT22;880;52.452;8.656;2023-09-19T03:02:52;16.00;99.90
1766;DHT22;880;52.452;8.656;2023-09-19T03:05:21;16.00;99.90
1766;DHT22;880;52.452;8.656;2023-09-19T03:07:51;16.00;99.90
1766;DHT22;880;52.452;8.656;2023-09-19T03:10:20;16.10;99.90
1766;DHT22;880;52.452;8.656;2023-09-19T03:12:48;16.10;99.90
1766;DHT22;880;52.452;8.656;2023-09-19T03:15:18;16.00;99.90
1766;DHT22;880;52.452;8.656;2023-09-19T03:17:48;16.00;99.90
1766;DHT22;880;52.452;8.656;2023-09-19T03:20:20;15.90;99.90
1766;DHT22;880;52.452;8.656;2023-09-19T03:22:50;15.90;99.90
1766;DHT22;880;52.452;8.656;2023-09-19T03:25:17;15.80;99.90
1766;DHT22;880;52.452;8.656;2023-09-19T03:27:49;15.70;99.90
1766;DHT22;880;52.452;8.656;2023-09-19T03:30:16;15.70;99.90
1766;DHT22;880;52.452;8.656;2023-09-19T03:32:48;15.70;99.90
1766;DHT22;880;52.452;8.656;2023-09-19T03:35:18;15.60;99.90
1766;DHT22;880;52.452;8.656;2023-09-19T03:37:47;15.60;99.90
1766;DHT22;880;52.452;8.656;2023-09-19T03:40:14;15.50;99.90
1766;DHT22;880;52.452;8.656;2023-09-19T03:42:43;15.50;99.90
1766;DHT22;880;52.452;8.656;2023-09-19T03:45:12;15.50;99.90
1766;DHT22;880;52.452;8.656;2023-09-19T03:47:45;15.40;99.90
1766;DHT22;880;52.452;8.656;2023-09-19T03:50:17;15.40;99.90
1766;DHT22;880;52.452;8.656;2023-09-19T03:52:45;15.40;99.90
1766;DHT22;880;52.452;8.656;2023-09-19T03:55:12;15.40;99.90
1766;DHT22;880;52.452;8.656;2023-09-19T03:57:40;15.40;99.90
1766;DHT22;880;52.452;8.656;2023-09-19T04:00:08;15.30;99.90
1766;DHT22;880;52.452;8.656;2023-09-19T04:02:40;15.30;99.90
1766;DHT22;880;52.452;8.656;2023-09-19T04:05:08;15.30;99.90
1766;DHT22;880;52.452;8.656;2023-09-19T04:07:36;15.30;99.90
1766;DHT22;880;52.452;8.656;2023-09-19T04:10:03;15.20;99.90
1766;DHT22;880;52.452;8.656;2023-09-19T04:12:31;15.20;99.90
1766;DHT22;880;52.452;8.656;2023-09-19T04:15:00;15.20;99.90
1766;DHT22;880;52.452;8.656;2023-09-19T04:17:27;15.30;99.90
1766;DHT22;880;52.452;8.656;2023-09-19T04:19:55;15.20;99.90
1766;DHT22;880;52.452;8.656;2023-09-19T04:22:22;15.20;99.90
1766;DHT22;880;52.452;8.656;2023-09-19T04:24:49;15.30;99.90
1766;DHT22;880;52.452;8.656;2023-09-19T04:27:16;15.20;99.90
1766;DHT22;880;52.452;8.656;2023-09-19T04:29:45;15.20;99.90
1766;DHT22;880;52.452;8.656;2023-09-19T04:32:12;15.10;99.90
1766;DHT22;880;52.452;8.656;2023-09-19T04:34:39;15.10;99.90
1766;DHT22;880;52.452;8.656;2023-09-19T04:37:07;15.10;99.90
1766;DHT22;880;52.452;8.656;2023-09-19T04:39:34;15.00;99.90
1766;DHT22;880;52.452;8.656;2023-09-19T04:42:01;15.10;99.90
1766;DHT22;880;52.452;8.656;2023-09-19T04:44:30;15.10;99.90
1766;DHT22;880;52.452;8.656;2023-09-19T04:46:57;15.10;99.90
1766;DHT22;880;52.452;8.656;2023-09-19T04:49:24;15.00;99.90
1766;DHT22;880;52.452;8.656;2023-09-19T04:51:51;15.00;99.90
1766;DHT22;880;52.452;8.656;2023-09-19T04:54:19;15.00;99.90
1766;DHT22;880;52.452;8.656;2023-09-19T04:56:46;15.00;99.90
1766;DHT22;880;52.452;8.656;2023-09-19T04:59:13;15.00;99.90
1766;DHT22;880;52.452;8.656;2023-09-19T05:01:41;15.00;99.90
1766;DHT22;880;52.452;8.656;2023-09-19T05:04:09;15.00;99.90
1766;DHT22;880;52.452;8.656;2023-09-19T05:06:36;15.00;99.90
1766;DHT22;880;52.452;8.656;2023-09-19T05:09:03;15.00;99.90
1766;DHT22;880;52.452;8.656;2023-09-19T05:11:32;15.00;99.90
1766;DHT22;880;52.452;8.656;2023-09-19T05:14:00;14.90;99.90
1766;DHT22;880;52.452;8.656;2023-09-19T05:16:30;14.90;99.90
1766;DHT22;880;52.452;8.656;2023-09-19T05:19:01;14.90;99.90
1766;DHT22;880;52.452;8.656;2023-09-19T05:21:30;14.90;99.90
1766;DHT22;880;52.452;8.656;2023-09-19T05:23:57;14.90;99.90
1766;DHT22;880;52.452;8.656;2023-09-19T05:26:24;14.80;99.90
1766;DHT22;880;52.452;8.656;2023-09-19T05:28:51;14.80;99.90
1766;DHT22;880;52.452;8.656;2023-09-19T05:31:19;14.80;99.90
1766;DHT22;880;52.452;8.656;2023-09-19T05:33:47;14.80;99.90
1766;DHT22;880;52.452;8.656;2023-09-19T05:36:14;14.80;99.90
1766;DHT22;880;52.452;8.656;2023-09-19T05:38:43;14.80;99.90
1766;DHT22;880;52.452;8.656;2023-09-19T05:41:11;14.70;99.90
1766;DHT22;880;52.452;8.656;2023-09-19T05:43:40;14.70;99.90
1766;DHT22;880;52.452;8.656;2023-09-19T05:46:08;14.60;99.90
1766;DHT22;880;52.452;8.656;2023-09-19T05:48:35;14.70;99.90
1766;DHT22;880;52.452;8.656;2023-09-19T05:51:02;14.60;99.90
1766;DHT22;880;52.452;8.656;2023-09-19T05:53:29;14.60;99.90
1766;DHT22;880;52.452;8.656;2023-09-19T05:55:56;14.70;99.90
1766;DHT22;880;52.452;8.656;2023-09-19T05:58:24;14.70;99.90
1766;DHT22;880;52.452;8.656;2023-09-19T06:00:51;14.70;99.90
1766;DHT22;880;52.452;8.656;2023-09-19T06:03:18;14.70;99.90
1766;DHT22;880;52.452;8.656;2023-09-19T06:05:47;14.80;99.90
1766;DHT22;880;52.452;8.656;2023-09-19T06:08:16;14.80;99.90
1766;DHT22;880;52.452;8.656;2023-09-19T06:10:43;14.90;99.90
1766;DHT22;880;52.452;8.656;2023-09-19T06:13:10;14.90;99.90
1766;DHT22;880;52.452;8.656;2023-09-19T06:15:37;14.90;99.90
1766;DHT22;880;52.452;8.656;2023-09-19T06:18:04;15.00;99.90
1766;DHT22;880;52.452;8.656;2023-09-19T06:20:32;15.00;99.90
1766;DHT22;880;52.452;8.656;2023-09-19T06:23:00;15.00;99.90
1766;DHT22;880;52.452;8.656;2023-09-19T06:25:29;15.10;99.90
1766;DHT22;880;52.452;8.656;2023-09-19T06:27:56;15.10;99.90
1766;DHT22;880;52.452;8.656;2023-09-19T06:30:24;15.10;99.90
1766;DHT22;880;52.452;8.656;2023-09-19T06:32:57;15.20;99.90
1766;DHT22;880;52.452;8.656;2023-09-19T06:35:25;15.20;99.90
1766;DHT22;880;52.452;8.656;2023-09-19T06:37:53;15.30;99.90
1766;DHT22;880;52.452;8.656;2023-09-19T06:40:20;15.30;99.90
1766;DHT22;880;52.452;8.656;2023-09-19T06:42:50;15.30;99.90
1766;DHT22;880;52.452;8.656;2023-09-19T06:45:19;15.30;99.90
1766;DHT22;880;52.452;8.656;2023-09-19T06:47:51;15.30;99.90
1766;DHT22;880;52.452;8.656;2023-09-19T06:50:20;15.30;99.90
1766;DHT22;880;52.452;8.656;2023-09-19T06:52:53;15.40;99.90
1766;DHT22;880;52.452;8.656;2023-09-19T06:55:22;15.40;99.90
1766;DHT22;880;52.452;8.656;2023-09-19T06:57:55;15.50;99.90
1766;DHT22;880;52.452;8.656;2023-09-19T07:00:23;15.60;99.90
1766;DHT22;880;52.452;8.656;2023-09-19T07:03:01;15.70;99.90
1766;DHT22;880;52.452;8.656;2023-09-19T07:05:32;15.80;99.90
1766;DHT22;880;52.452;8.656;2023-09-19T07:08:00;15.80;99.90
1766;DHT22;880;52.452;8.656;2023-09-19T07:10:30;15.80;99.90
1766;DHT22;880;52.452;8.656;2023-09-19T07:13:05;15.80;99.90
1766;DHT22;880;52.452;8.656;2023-09-19T07:15:38;15.80;99.90
1766;DHT22;880;52.452;8.656;2023-09-19T07:18:08;15.90;99.90
1766;DHT22;880;52.452;8.656;2023-09-19T07:20:38;15.90;99.90
1766;DHT22;880;52.452;8.656;2023-09-19T07:23:05;16.00;99.90
1766;DHT22;880;52.452;8.656;2023-09-19T07:25:33;15.90;99.90
1766;DHT22;880;52.452;8.656;2023-09-19T07:28:02;15.90;99.90
1766;DHT22;880;52.452;8.656;2023-09-19T07:30:29;15.90;99.90
1766;DHT22;880;52.452;8.656;2023-09-19T07:32:57;15.80;99.90
1766;DHT22;880;52.452;8.656;2023-09-19T07:35:24;15.80;99.90
1766;DHT22;880;52.452;8.656;2023-09-19T07:37:52;15.80;99.90
1766;DHT22;880;52.452;8.656;2023-09-19T07:40:19;15.80;99.90
1766;DHT22;880;52.452;8.656;2023-09-19T07:42:50;15.80;99.90
1766;DHT22;880;52.452;8.656;2023-09-19T07:45:17;15.80;99.90
1766;DHT22;880;52.452;8.656;2023-09-19T07:47:48;15.80;99.90
1766;DHT22;880;52.452;8.656;2023-09-19T07:50:17;15.90;99.90
1766;DHT22;880;52.452;8.656;2023-09-19T07:52:49;15.90;99.90
1766;DHT22;880;52.452;8.656;2023-09-19T07:55:20;16.00;99.90
1766;DHT22;880;52.452;8.656;2023-09-19T07:57:50;16.20;99.90
1766;DHT22;880;52.452;8.656;2023-09-19T08:00:18;16.40;99.90
1766;DHT22;880;52.452;8.656;2023-09-19T08:02:46;16.40;99.90
1766;DHT22;880;52.452;8.656;2023-09-19T08:05:22;16.60;99.90
1766;DHT22;880;52.452;8.656;2023-09-19T08:07:50;16.70;99.90
1766;DHT22;880;52.452;8.656;2023-09-19T08:10:17;16.80;99.90
1766;DHT22;880;52.452;8.656;2023-09-19T08:12:47;16.90;99.90
1766;DHT22;880;52.452;8.656;2023-09-19T08:15:20;16.80;99.90
1766;DHT22;880;52.452;8.656;2023-09-19T08:17:48;16.70;99.90
1766;DHT22;880;52.452;8.656;2023-09-19T08:20:16;16.60;99.90
1766;DHT22;880;52.452;8.656;2023-09-19T08:22:47;16.60;99.90
1766;DHT22;880;52.452;8.656;2023-09-19T08:25:15;16.70;99.90
1766;DHT22;880;52.452;8.656;2023-09-19T08:27:45;16.80;99.90
1766;DHT22;880;52.452;8.656;2023-09-19T08:30:17;16.60;99.90
1766;DHT22;880;52.452;8.656;2023-09-19T08:32:46;16.70;99.90
1766;DHT22;880;52.452;8.656;2023-09-19T08:35:14;16.70;99.90
1766;DHT22;880;52.452;8.656;2023-09-19T08:37:44;16.80;99.90
1766;DHT22;880;52.452;8.656;2023-09-19T08:40:15;16.90;99.90
1766;DHT22;880;52.452;8.656;2023-09-19T08:42:52;17.00;99.90
1766;DHT22;880;52.452;8.656;2023-09-19T08:45:24;17.00;99.90
1766;DHT22;880;52.452;8.656;2023-09-19T08:50:55;17.20;99.90
1766;DHT22;880;52.452;8.656;2023-09-19T08:56:13;17.30;99.90
1766;DHT22;880;52.452;8.656;2023-09-19T08:58:46;17.30;99.90
1766;DHT22;880;52.452;8.656;2023-09-19T09:01:21;17.30;99.90
1766;DHT22;880;52.452;8.656;2023-09-19T09:03:53;17.20;99.90
1766;DHT22;880;52.452;8.656;2023-09-19T09:06:22;17.20;99.90
1766;DHT22;880;52.452;8.656;2023-09-19T09:08:51;17.30;99.90
1766;DHT22;880;52.452;8.656;2023-09-19T09:11:19;17.50;99.90
1766;DHT22;880;52.452;8.656;2023-09-19T09:13:48;17.60;99.90
1766;DHT22;880;52.452;8.656;2023-09-19T09:16:15;17.60;99.90
1766;DHT22;880;52.452;8.656;2023-09-19T09:18:46;17.60;99.90
1766;DHT22;880;52.452;8.656;2023-09-19T09:24:37;17.60;99.90
1766;DHT22;880;52.452;8.656;2023-09-19T09:27:20;17.60;99.90
1766;DHT22;880;52.452;8.656;2023-09-19T09:29:52;17.60;99.90
1766;DHT22;880;52.452;8.656;2023-09-19T09:32:26;17.60;99.90
1766;DHT22;880;52.452;8.656;2023-09-19T09:34:57;17.60;99.90
1766;DHT22;880;52.452;8.656;2023-09-19T09:37:28;17.70;99.90
1766;DHT22;880;52.452;8.656;2023-09-19T09:39:59;17.80;99.90
1766;DHT22;880;52.452;8.656;2023-09-19T09:42:46;18.10;99.90
1766;DHT22;880;52.452;8.656;2023-09-19T09:45:20;18.20;99.90
1766;DHT22;880;52.452;8.656;2023-09-19T09:48:01;18.20;99.90
1766;DHT22;880;52.452;8.656;2023-09-19T09:50:35;18.20;99.90
1766;DHT22;880;52.452;8.656;2023-09-19T09:53:27;18.30;99.90
1766;DHT22;880;52.452;8.656;2023-09-19T09:56:04;18.30;99.90
1766;DHT22;880;52.452;8.656;2023-09-19T09:58:37;18.40;99.90
1766;DHT22;880;52.452;8.656;2023-09-19T10:01:07;18.40;99.90
1766;DHT22;880;52.452;8.656;2023-09-19T10:03:39;18.50;99.90
1766;DHT22;880;52.452;8.656;2023-09-19T10:06:08;18.60;99.90
1766;DHT22;880;52.452;8.656;2023-09-19T10:09:02;18.40;99.90
1766;DHT22;880;52.452;8.656;2023-09-19T10:11:49;18.50;99.90
1766;DHT22;880;52.452;8.656;2023-09-19T10:14:35;18.50;99.90
1766;DHT22;880;52.452;8.656;2023-09-19T10:17:05;18.60;99.90
1766;DHT22;880;52.452;8.656;2023-09-19T10:19:55;18.50;99.90
1766;DHT22;880;52.452;8.656;2023-09-19T10:22:26;18.60;99.90
1766;DHT22;880;52.452;8.656;2023-09-19T10:24:55;18.60;99.90
1766;DHT22;880;52.452;8.656;2023-09-19T10:27:29;18.70;99.90
1766;DHT22;880;52.452;8.656;2023-09-19T10:30:07;18.80;99.90
1766;DHT22;880;52.452;8.656;2023-09-19T10:32:35;18.70;99.90
1766;DHT22;880;52.452;8.656;2023-09-19T10:35:08;18.70;99.90
1766;DHT22;880;52.452;8.656;2023-09-19T10:37:39;18.60;99.90
1766;DHT22;880;52.452;8.656;2023-09-19T10:40:08;18.60;99.90
1766;DHT22;880;52.452;8.656;2023-09-19T10:42:38;18.80;99.90
1766;DHT22;880;52.452;8.656;2023-09-19T10:45:06;19.00;99.90
1766;DHT22;880;52.452;8.656;2023-09-19T10:47:40;19.20;99.90
1766;DHT22;880;52.452;8.656;2023-09-19T10:50:07;19.30;99.90
1766;DHT22;880;52.452;8.656;2023-09-19T10:52:40;19.30;99.90
1766;DHT22;880;52.452;8.656;2023-09-19T10:55:09;19.60;99.90
1766;DHT22;880;52.452;8.656;2023-09-19T10:57:38;19.60;99.90
1766;DHT22;880;52.452;8.656;2023-09-19T11:00:09;19.60;99.90
1766;DHT22;880;52.452;8.656;2023-09-19T11:05:40;19.50;99.90
1766;DHT22;880;52.452;8.656;2023-09-19T11:08:08;19.20;99.90
1766;DHT22;880;52.452;8.656;2023-09-19T11:13:30;19.10;99.90
1766;DHT22;880;52.452;8.656;2023-09-19T11:26:51;19.30;99.90
1766;DHT22;880;52.452;8.656;2023-09-19T11:29:36;19.30;99.90
1766;DHT22;880;52.452;8.656;2023-09-19T11:32:04;19.30;99.90
1766;DHT22;880;52.452;8.656;2023-09-19T11:39:38;19.70;99.90
1766;DHT22;880;52.452;8.656;2023-09-19T11:48:07;19.60;99.90
1766;DHT22;880;52.452;8.656;2023-09-19T11:50:36;19.60;99.90
1766;DHT22;880;52.452;8.656;2023-09-19T11:53:05;19.60;99.90
1766;DHT22;880;52.452;8.656;2023-09-19T11:55:32;19.60;99.90
1766;DHT22;880;52.452;8.656;2023-09-19T11:58:01;19.50;99.90
1766;DHT22;880;52.452;8.656;2023-09-19T12:00:28;19.50;99.90
1766;DHT22;880;52.452;8.656;2023-09-19T12:02:55;19.40;99.90
1766;DHT22;880;52.452;8.656;2023-09-19T12:05:29;19.30;99.90
1766;DHT22;880;52.452;8.656;2023-09-19T12:07:58;19.40;99.90
1766;DHT22;880;52.452;8.656;2023-09-19T12:10:25;19.50;99.90
1766;DHT22;880;52.452;8.656;2023-09-19T12:12:53;19.60;99.90
1766;DHT22;880;52.452;8.656;2023-09-19T12:15:23;19.60;99.90
1766;DHT22;880;52.452;8.656;2023-09-19T12:17:55;19.60;99.90
1766;DHT22;880;52.452;8.656;2023-09-19T12:20:22;19.60;99.90
1766;DHT22;880;52.452;8.656;2023-09-19T12:22:50;19.70;99.90
1766;DHT22;880;52.452;8.656;2023-09-19T12:25:17;19.80;99.90
1766;DHT22;880;52.452;8.656;2023-09-19T12:27:46;19.80;99.90
1766;DHT22;880;52.452;8.656;2023-09-19T12:30:15;19.80;99.90
1766;DHT22;880;52.452;8.656;2023-09-19T12:32:47;20.10;99.90
1766;DHT22;880;52.452;8.656;2023-09-19T12:35:32;20.40;99.90
1766;DHT22;880;52.452;8.656;2023-09-19T12:38:03;20.60;99.90
1766;DHT22;880;52.452;8.656;2023-09-19T12:40:32;20.60;99.90
1766;DHT22;880;52.452;8.656;2023-09-19T12:43:02;20.60;99.90
1766;DHT22;880;52.452;8.656;2023-09-19T12:45:34;20.60;99.90
1766;DHT22;880;52.452;8.656;2023-09-19T12:48:23;20.70;99.90
1766;DHT22;880;52.452;8.656;2023-09-19T12:53:39;20.80;99.90
1766;DHT22;880;52.452;8.656;2023-09-19T12:56:12;20.90;99.90
1766;DHT22;880;52.452;8.656;2023-09-19T12:58:51;20.90;99.90
1766;DHT22;880;52.452;8.656;2023-09-19T13:01:24;20.90;99.90
1766;DHT22;880;52.452;8.656;2023-09-19T13:04:22;20.90;99.90
1766;DHT22;880;52.452;8.656;2023-09-19T13:06:57;20.80;99.90
1766;DHT22;880;52.452;8.656;2023-09-19T13:09:28;20.80;99.90
1766;DHT22;880;52.452;8.656;2023-09-19T13:12:01;20.90;99.90
1766;DHT22;880;52.452;8.656;2023-09-19T13:14:29;20.80;99.90
1766;DHT22;880;52.452;8.656;2023-09-19T13:17:07;20.80;99.90
1766;DHT22;880;52.452;8.656;2023-09-19T13:19:47;20.70;99.90
1766;DHT22;880;52.452;8.656;2023-09-19T13:22:43;20.60;99.90
1766;DHT22;880;52.452;8.656;2023-09-19T13:25:21;20.50;99.90
1766;DHT22;880;52.452;8.656;2023-09-19T13:27:57;20.30;99.90
1766;DHT22;880;52.452;8.656;2023-09-19T13:30:26;20.40;99.90
1766;DHT22;880;52.452;8.656;2023-09-19T13:33:07;20.50;99.90
1766;DHT22;880;52.452;8.656;2023-09-19T13:35:39;20.30;99.90
1766;DHT22;880;52.452;8.656;2023-09-19T13:38:07;20.30;99.90
1766;DHT22;880;52.452;8.656;2023-09-19T13:40:39;20.40;99.90
1766;DHT22;880;52.452;8.656;2023-09-19T13:43:08;20.50;99.90
1766;DHT22;880;52.452;8.656;2023-09-19T13:45:36;20.60;99.90
1766;DHT22;880;52.452;8.656;2023-09-19T13:48:04;20.60;99.90
1766;DHT22;880;52.452;8.656;2023-09-19T13:50:31;20.60;99.90
1766;DHT22;880;52.452;8.656;2023-09-19T13:52:58;20.60;99.90
1766;DHT22;880;52.452;8.656;2023-09-19T13:55:27;20.30;99.90
1766;DHT22;880;52.452;8.656;2023-09-19T13:57:54;20.10;99.90
1766;DHT22;880;52.452;8.656;2023-09-19T14:00:22;20.10;99.90
1766;DHT22;880;52.452;8.656;2023-09-19T14:02:50;20.20;99.90
1766;DHT22;880;52.452;8.656;2023-09-19T14:05:18;20.30;99.90
1766;DHT22;880;52.452;8.656;2023-09-19T14:07:47;20.30;99.90
1766;DHT22;880;52.452;8.656;2023-09-19T14:10:14;20.40;99.90
1766;DHT22;880;52.452;8.656;2023-09-19T14:12:44;20.50;99.90
1766;DHT22;880;52.452;8.656;2023-09-19T14:15:12;20.60;99.90
1766;DHT22;880;52.452;8.656;2023-09-19T14:17:39;20.60;99.90
1766;DHT22;880;52.452;8.656;2023-09-19T14:20:12;20.70;99.90
1766;DHT22;880;52.452;8.656;2023-09-19T14:22:39;20.90;99.90
1766;DHT22;880;52.452;8.656;2023-09-19T14:25:07;21.00;99.90
1766;DHT22;880;52.452;8.656;2023-09-19T14:27:35;20.90;99.90
1766;DHT22;880;52.452;8.656;2023-09-19T14:30:03;21.10;99.90
1766;DHT22;880;52.452;8.656;2023-09-19T14:32:30;21.00;99.90
1766;DHT22;880;52.452;8.656;2023-09-19T14:34:58;20.80;99.90
1766;DHT22;880;52.452;8.656;2023-09-19T14:37:25;20.80;99.90
1766;DHT22;880;52.452;8.656;2023-09-19T14:39:54;20.80;99.90
1766;DHT22;880;52.452;8.656;2023-09-19T14:42:21;20.80;99.90
1766;DHT22;880;52.452;8.656;2023-09-19T14:44:49;20.50;99.90
1766;DHT22;880;52.452;8.656;2023-09-19T14:47:16;20.50;99.90
1766;DHT22;880;52.452;8.656;2023-09-19T14:49:44;20.50;99.90
1766;DHT22;880;52.452;8.656;2023-09-19T14:52:11;20.50;99.90
1766;DHT22;880;52.452;8.656;2023-09-19T14:54:42;20.40;99.90
1766;DHT22;880;52.452;8.656;2023-09-19T14:57:09;20.30;99.90
1766;DHT22;880;52.452;8.656;2023-09-19T14:59:37;20.20;99.90
1766;DHT22;880;52.452;8.656;2023-09-19T15:02:04;20.20;99.90
1766;DHT22;880;52.452;8.656;2023-09-19T15:04:32;20.20;99.90
1766;DHT22;880;52.452;8.656;2023-09-19T15:07:00;20.20;99.90
1766;DHT22;880;52.452;8.656;2023-09-19T15:09:28;20.10;99.90
1766;DHT22;880;52.452;8.656;2023-09-19T15:11:58;20.00;99.90
1766;DHT22;880;52.452;8.656;2023-09-19T15:14:25;19.90;99.90
1766;DHT22;880;52.452;8.656;2023-09-19T15:16:52;20.00;99.90
1766;DHT22;880;52.452;8.656;2023-09-19T15:19:19;19.90;99.90
1766;DHT22;880;52.452;8.656;2023-09-19T15:21:46;19.90;99.90
1766;DHT22;880;52.452;8.656;2023-09-19T15:24:13;19.80;99.90
1766;DHT22;880;52.452;8.656;2023-09-19T15:26:41;19.90;99.90
1766;DHT22;880;52.452;8.656;2023-09-19T15:29:10;19.80;99.90
1766;DHT22;880;52.452;8.656;2023-09-19T15:31:37;19.80;99.90
1766;DHT22;880;52.452;8.656;2023-09-19T15:34:05;19.80;99.90
1766;DHT22;880;52.452;8.656;2023-09-19T15:36:34;19.80;99.90
1766;DHT22;880;52.452;8.656;2023-09-19T15:39:05;19.80;99.90
1766;DHT22;880;52.452;8.656;2023-09-19T15:41:39;19.80;99.90
1766;DHT22;880;52.452;8.656;2023-09-19T15:44:15;19.80;99.90
1766;DHT22;880;52.452;8.656;2023-09-19T15:46:45;19.80;99.90
1766;DHT22;880;52.452;8.656;2023-09-19T15:49:14;19.80;99.90
1766;DHT22;880;52.452;8.656;2023-09-19T15:51:41;19.80;99.90
1766;DHT22;880;52.452;8.656;2023-09-19T15:54:12;19.90;99.90
1766;DHT22;880;52.452;8.656;2023-09-19T15:56:45;19.90;99.90
1766;DHT22;880;52.452;8.656;2023-09-19T15:59:13;19.90;99.90
1766;DHT22;880;52.452;8.656;2023-09-19T16:01:43;19.80;99.90
1766;DHT22;880;52.452;8.656;2023-09-19T16:04:11;19.70;99.90
1766;DHT22;880;52.452;8.656;2023-09-19T16:06:39;19.70;99.90
1766;DHT22;880;52.452;8.656;2023-09-19T16:09:08;19.60;99.90
1766;DHT22;880;52.452;8.656;2023-09-19T16:11:39;19.70;99.90
1766;DHT22;880;52.452;8.656;2023-09-19T16:14:08;19.70;99.90
1766;DHT22;880;52.452;8.656;2023-09-19T16:16:37;19.70;99.90
1766;DHT22;880;52.452;8.656;2023-09-19T16:19:05;19.70;99.90
1766;DHT22;880;52.452;8.656;2023-09-19T16:21:37;19.60;99.90
1766;DHT22;880;52.452;8.656;2023-09-19T16:24:07;19.60;99.90
1766;DHT22;880;52.452;8.656;2023-09-19T16:26:36;19.50;99.90
1766;DHT22;880;52.452;8.656;2023-09-19T16:29:04;19.60;99.90
1766;DHT22;880;52.452;8.656;2023-09-19T16:31:31;19.50;99.90
1766;DHT22;880;52.452;8.656;2023-09-19T16:33:59;19.50;99.90
1766;DHT22;880;52.452;8.656;2023-09-19T16:36:27;19.50;99.90
1766;DHT22;880;52.452;8.656;2023-09-19T16:38:54;19.50;99.90
1766;DHT22;880;52.452;8.656;2023-09-19T16:41:22;19.50;99.90
1766;DHT22;880;52.452;8.656;2023-09-19T16:43:50;19.40;99.90
1766;DHT22;880;52.452;8.656;2023-09-19T16:46:17;19.50;99.90
1766;DHT22;880;52.452;8.656;2023-09-19T16:48:46;19.40;99.90
1766;DHT22;880;52.452;8.656;2023-09-19T16:51:17;19.40;99.90
1766;DHT22;880;52.452;8.656;2023-09-19T16:53:44;19.40;99.90
1766;DHT22;880;52.452;8.656;2023-09-19T16:56:19;19.30;99.90
1766;DHT22;880;52.452;8.656;2023-09-19T16:58:48;19.30;99.90
1766;DHT22;880;52.452;8.656;2023-09-19T17:01:19;19.30;99.90
1766;DHT22;880;52.452;8.656;2023-09-19T17:03:48;19.30;99.90
1766;DHT22;880;52.452;8.656;2023-09-19T17:06:17;19.30;99.90
1766;DHT22;880;52.452;8.656;2023-09-19T17:08:47;19.30;99.90
1766;DHT22;880;52.452;8.656;2023-09-19T17:11:15;19.30;99.90
1766;DHT22;880;52.452;8.656;2023-09-19T17:13:45;19.20;99.90
1766;DHT22;880;52.452;8.656;2023-09-19T17:16:17;19.20;99.90
1766;DHT22;880;52.452;8.656;2023-09-19T17:18:54;19.20;99.90
1766;DHT22;880;52.452;8.656;2023-09-19T17:21:23;19.10;99.90
1766;DHT22;880;52.452;8.656;2023-09-19T17:23:52;19.10;99.90
1766;DHT22;880;52.452;8.656;2023-09-19T17:26:21;19.10;99.90
1766;DHT22;880;52.452;8.656;2023-09-19T17:28:50;19.00;99.90
1766;DHT22;880;52.452;8.656;2023-09-19T17:31:20;19.10;99.90
1766;DHT22;880;52.452;8.656;2023-09-19T17:33:49;19.10;99.90
1766;DHT22;880;52.452;8.656;2023-09-19T17:36:23;19.10;99.90
1766;DHT22;880;52.452;8.656;2023-09-19T17:38:53;19.10;99.90